Time;durP1;ratioP1;P1;durP2;ratioP2;P2;SDS_P1;SDS_P2;PMS_P1;PMS_P2;Temp;Humidity;BMP_temperature;BMP_pressure;BME280_temperature;BME280_humidity;BME280_pressure;Samples;Min_cycle;Max_cycle;Signal;HPM_P1;HPM_P2
2022/07/20 00:01:40;;;;;;;22.80;20.47;;;18.50;1.00;;;;;;5014187;28;20197;-90
2022/07/20 00:04:08;;;;;;;24.00;21.80;;;18.50;1.00;;;;;;5014080;28;20224;-88
2022/07/20 00:06:35;;;;;;;22.63;20.27;;;18.40;1.00;;;;;;5013946;28;20206;-89
2022/07/20 00:11:48;;;;;;;20.43;18.43;;;18.30;1.00;;;;;;5013968;28;20674;-90
2022/07/20 00:14:15;;;;;;;22.70;20.53;;;18.30;1.00;;;;;;5013905;28;20205;-88
2022/07/20 00:16:43;;;;;;;21.33;19.27;;;18.20;1.00;;;;;;5014107;28;20615;-90
2022/07/20 00:19:10;;;;;;;22.97;20.57;;;18.20;1.00;;;;;;5013636;28;20193;-90
2022/07/20 00:21:37;;;;;;;22.80;20.47;;;18.30;1.00;;;;;;4999916;28;20657;-89
2022/07/20 00:24:05;;;;;;;24.07;21.53;;;18.30;1.00;;;;;;5013676;28;20563;-87
2022/07/20 00:26:32;;;;;;;20.97;18.90;;;18.30;1.00;;;;;;5012192;28;20259;-91
2022/07/20 00:29:01;;;;;;;24.50;22.17;;;18.30;1.00;;;;;;5013758;28;20200;-90
2022/07/20 00:31:28;;;;;;;23.13;20.87;;;18.40;1.00;;;;;;5013200;28;25060;-88
2022/07/20 00:33:55;;;;;;;24.80;22.50;;;18.40;1.00;;;;;;5013782;28;20198;-90
2022/07/20 00:36:23;;;;;;;22.33;20.13;;;18.40;1.00;;;;;;5013348;28;20207;-87
2022/07/20 00:38:50;;;;;;;21.93;19.73;;;18.30;1.00;;;;;;5013557;28;20547;-89
2022/07/20 00:41:17;;;;;;;23.57;21.30;;;18.40;1.00;;;;;;5013429;28;20201;-90
2022/07/20 00:43:55;;;;;;;22.87;20.63;;;18.30;1.00;;;;;;5013664;28;20568;-89
2022/07/20 00:46:24;;;;;;;26.63;22.60;;;18.40;1.00;;;;;;4999706;28;20879;-90
2022/07/20 00:48:51;;;;;;;25.77;23.27;;;18.30;1.00;;;;;;5009580;28;20197;-88
2022/07/20 00:51:18;;;;;;;22.07;19.97;;;18.30;1.00;;;;;;5013288;28;20255;-90
2022/07/20 00:53:46;;;;;;;23.70;21.27;;;18.30;1.00;;;;;;5012829;28;20198;-88
2022/07/20 00:56:15;;;;;;;23.07;20.83;;;18.30;1.00;;;;;;5013140;28;20212;-91
2022/07/20 00:58:42;;;;;;;25.70;23.33;;;18.30;1.00;;;;;;5013289;28;20228;-89
2022/07/20 01:01:09;;;;;;;24.47;22.03;;;18.20;1.00;;;;;;5012794;28;20204;-90
2022/07/20 01:03:38;;;;;;;24.70;21.57;;;18.20;27.10;;;;;;5013353;28;20202;-90
2022/07/20 01:06:06;;;;;;;22.77;20.67;;;18.20;33.20;;;;;;5013074;28;20560;-89
2022/07/20 01:08:33;;;;;;;25.00;22.73;;;18.20;99.90;;;;;;5013068;28;20208;-89
2022/07/20 01:11:01;;;;;;;23.73;21.57;;;18.20;99.90;;;;;;5013079;28;20249;-89
2022/07/20 01:13:32;;;;;;;25.17;22.90;;;18.20;99.90;;;;;;5030227;28;20205;-92
2022/07/20 01:16:09;;;;;;;24.10;21.90;;;18.20;99.90;;;;;;5035843;28;20185;-94
2022/07/20 01:18:38;;;;;;;22.93;20.77;;;18.20;99.90;;;;;;5036217;28;20220;-94
2022/07/20 01:21:14;;;;;;;21.83;19.77;;;18.20;99.90;;;;;;5036125;28;20185;-93
2022/07/20 01:23:44;;;;;;;22.27;20.20;;;18.20;99.90;;;;;;5035402;28;20181;-94
2022/07/20 01:26:13;;;;;;;23.30;21.13;;;18.10;99.90;;;;;;5035504;28;20202;-91
2022/07/20 01:28:45;;;;;;;25.53;23.27;;;18.20;99.90;;;;;;5035309;28;20202;-92
2022/07/20 01:31:13;;;;;;;25.10;22.83;;;18.10;99.90;;;;;;5033150;28;20254;-90
2022/07/20 01:33:41;;;;;;;24.10;21.93;;;18.10;99.90;;;;;;5033944;28;20266;-92
2022/07/20 01:36:16;;;;;;;24.73;22.40;;;18.20;1.00;;;;;;5034290;28;20197;-91
2022/07/20 01:38:44;;;;;;;26.80;24.17;;;18.10;1.00;;;;;;5033787;28;20213;-91
2022/07/20 01:41:17;;;;;;;23.33;21.07;;;18.10;7.00;;;;;;5034037;28;20193;-92
2022/07/20 01:43:47;;;;;;;25.77;23.47;;;18.10;33.70;;;;;;5035274;28;20201;-93
2022/07/20 01:46:23;;;;;;;24.57;22.30;;;18.10;99.90;;;;;;5034182;28;20252;-91
2022/07/20 01:48:53;;;;;;;24.53;22.27;;;18.10;99.90;;;;;;5027538;28;20190;-93
2022/07/20 01:51:25;;;;;;;24.63;22.37;;;18.10;99.90;;;;;;5017934;28;20197;-95
2022/07/20 01:53:53;;;;;;;23.10;20.93;;;18.00;99.90;;;;;;5034246;28;20192;-92
2022/07/20 01:56:25;;;;;;;25.73;23.37;;;18.10;99.90;;;;;;5033063;28;20200;-91
2022/07/20 01:58:56;;;;;;;23.70;21.43;;;18.00;83.70;;;;;;5033642;28;20224;-92
2022/07/20 02:01:35;;;;;;;23.93;21.77;;;18.00;56.30;;;;;;5035642;28;20187;-89
2022/07/20 02:04:10;;;;;;;23.07;20.90;;;18.00;99.90;;;;;;5034219;28;20212;-92
2022/07/20 02:06:47;;;;;;;23.00;20.83;;;17.90;99.90;;;;;;5033616;28;20231;-92
2022/07/20 02:09:18;;;;;;;22.57;19.17;;;17.80;99.90;;;;;;5021683;28;20689;-92
2022/07/20 02:14:39;;;;;;;22.63;20.37;;;17.70;1.00;;;;;;5034105;28;20201;-94
2022/07/20 02:17:07;;;;;;;22.03;19.77;;;17.60;1.00;;;;;;5034323;28;20264;-90
2022/07/20 03:09:07;;;;;;;25.07;22.73;;;16.70;81.70;;;;;;4865884;29;20431;-92
2022/07/20 03:11:34;;;;;;;24.20;21.77;;;16.70;30.10;;;;;;4847599;29;20294;-88
2022/07/20 03:14:01;;;;;;;22.40;20.27;;;16.70;17.50;;;;;;4971999;28;20197;-88
2022/07/20 03:16:28;;;;;;;21.03;18.90;;;16.70;64.70;;;;;;5015009;28;20202;-87
2022/07/20 03:18:55;;;;;;;20.87;17.03;;;16.70;99.90;;;;;;5014759;28;20658;-88
2022/07/20 03:21:25;;;;;;;20.03;17.93;;;16.80;99.90;;;;;;5014723;28;20192;-89
2022/07/20 03:23:52;;;;;;;24.37;20.23;;;16.80;99.90;;;;;;5015054;28;20206;-89
2022/07/20 03:26:21;;;;;;;22.00;19.70;;;16.80;99.90;;;;;;5019942;28;20214;-89
2022/07/20 03:28:48;;;;;;;23.90;19.63;;;16.80;1.00;;;;;;5021496;28;20231;-88
2022/07/20 03:31:15;;;;;;;23.90;20.60;;;16.80;1.00;;;;;;5020354;28;20188;-89
2022/07/20 03:33:42;;;;;;;20.47;18.00;;;16.80;1.00;;;;;;5019952;28;20201;-89
2022/07/20 03:36:10;;;;;;;22.70;20.27;;;16.90;1.00;;;;;;5006278;28;20195;-89
2022/07/20 03:38:37;;;;;;;21.73;19.57;;;16.90;1.00;;;;;;5021817;28;20212;-88
2022/07/20 03:41:04;;;;;;;19.47;17.40;;;17.00;1.00;;;;;;5021414;28;20199;-91
2022/07/20 03:43:33;;;;;;;19.87;17.80;;;17.00;1.00;;;;;;5022017;28;20199;-87
2022/07/20 03:46:00;;;;;;;22.37;20.20;;;17.10;1.00;;;;;;5022111;28;20219;-89
2022/07/20 03:48:36;;;;;;;25.67;22.97;;;17.20;49.40;;;;;;5023722;28;20200;-91
2022/07/20 03:51:04;;;;;;;25.43;22.73;;;17.30;97.10;;;;;;5019292;28;20215;-90
2022/07/20 03:53:31;;;;;;;22.27;20.07;;;17.40;1.00;;;;;;5022457;28;20205;-91
2022/07/20 03:55:58;;;;;;;20.07;17.97;;;17.50;81.80;;;;;;5019367;28;20663;-89
2022/07/20 03:58:25;;;;;;;24.73;21.80;;;17.70;99.90;;;;;;5016418;28;20238;-86
2022/07/20 04:00:57;;;;;;;24.83;21.27;;;18.10;99.90;;;;;;5023445;28;20199;-90
2022/07/20 04:03:24;;;;;;;23.03;19.43;;;18.70;1.00;;;;;;5020546;28;20193;-89
2022/07/20 04:05:51;;;;;;;;;;;19.30;1.00;;;;;;5020463;28;20225;-91
2022/07/20 04:08:18;;;;;;;30.80;26.30;;;19.90;1.00;;;;;;5019112;28;20049;-88
2022/07/20 04:10:46;;;;;;;27.17;24.60;;;20.40;99.90;;;;;;5002718;28;20246;-90
2022/07/20 04:13:13;;;;;;;33.10;29.73;;;20.90;99.90;;;;;;5017767;28;20201;-92
2022/07/20 04:15:40;;;;;;;;;;;21.50;1.00;;;;;;5012941;28;20471;-92
2022/07/20 04:18:08;;;;;;;31.67;29.00;;;22.00;1.00;;;;;;5021592;28;20056;-90
2022/07/20 04:20:43;;;;;;;;;;;22.60;1.00;;;;;;5022769;28;20206;-88
2022/07/20 04:23:11;;;;;;;;;;;23.20;99.90;;;;;;5020235;28;19926;-88
2022/07/20 04:25:38;;;;;;;;;;;23.60;99.90;;;;;;5021756;28;19933;-90
2022/07/20 04:28:05;;;;;;;;;;;24.20;99.90;;;;;;5022642;28;19929;-90
2022/07/20 04:30:44;;;;;;;;;;;24.80;99.90;;;;;;5018922;28;20014;-92
2022/07/20 04:33:24;;;;;;;23.53;21.43;;;25.30;1.00;;;;;;5019766;28;20265;-92
2022/07/20 04:36:00;;;;;;;;;;;25.80;1.00;;;;;;5021987;28;20053;-90
2022/07/20 04:38:37;;;;;;;277.93;137.97;;;26.30;1.00;;;;;;5023464;28;20211;-91
2022/07/20 04:41:12;;;;;;;;;;;26.80;1.00;;;;;;5023004;28;20045;-89
2022/07/20 04:43:40;;;;;;;;;;;27.10;1.00;;;;;;5024730;28;19912;-90
2022/07/20 04:46:07;;;;;;;743.33;588.77;;;27.50;1.00;;;;;;5018296;28;20188;-89
2022/07/20 04:48:35;;;;;;;773.13;659.70;;;28.00;1.00;;;;;;5013132;28;20583;-89
2022/07/20 04:51:05;;;;;;;784.57;684.87;;;28.40;1.00;;;;;;5017938;28;20189;-88
2022/07/20 04:53:32;;;;;;;;;;;28.80;1.00;;;;;;5020294;28;20171;-89
2022/07/20 04:56:10;;;;;;;801.80;716.23;;;29.20;1.00;;;;;;5016750;28;21067;-90
2022/07/20 04:58:52;;;;;;;;;;;29.70;99.90;;;;;;5020796;28;20069;-90
2022/07/20 05:01:19;;;;;;;;;;;30.20;99.90;;;;;;5022679;28;19927;-89
2022/07/20 05:03:48;;;;;;;;;;;30.70;99.90;;;;;;5017007;28;19925;-89
2022/07/20 05:06:15;;;;;;;693.57;530.83;;;31.20;99.90;;;;;;5012627;28;20199;-91
2022/07/20 05:09:13;;;;;;;;;;;31.70;99.90;;;;;;5020793;28;20042;-92
2022/07/20 05:11:40;;;;;;;;;;;32.10;99.90;;;;;;5023639;28;19921;-90
2022/07/20 05:14:08;;;;;;;875.95;791.90;;;32.50;99.90;;;;;;5017285;28;20177;-89
2022/07/20 05:16:36;;;;;;;925.25;839.40;;;32.90;99.90;;;;;;5020979;28;20205;-91
2022/07/20 05:19:11;;;;;;;912.70;826.47;;;33.30;99.90;;;;;;5023586;28;20217;-94
2022/07/20 05:21:38;;;;;;;921.10;835.40;;;33.80;99.90;;;;;;5019150;28;20209;-90
2022/07/20 05:24:05;;;;;;;907.05;821.72;;;34.20;99.90;;;;;;5017800;28;20203;-92
2022/07/20 05:26:40;;;;;;;953.63;866.63;;;34.80;99.90;;;;;;5017567;28;20210;-91
2022/07/20 05:29:08;;;;;;;967.22;879.53;;;35.50;99.90;;;;;;5016954;28;20259;-90
2022/07/20 05:31:35;;;;;;;975.90;886.92;;;36.20;99.90;;;;;;5024854;28;20183;-92
2022/07/20 05:34:03;;;;;;;960.13;871.05;;;36.90;99.90;;;;;;5018958;28;20228;-88
2022/07/20 05:36:34;;;;;;;;;;;37.30;99.90;;;;;;5021611;28;20730;-93
2022/07/20 05:39:11;;;;;;;928.75;843.05;;;38.00;99.90;;;;;;5022812;28;20118;-91
2022/07/20 05:44:53;;;;;;;914.35;829.30;;;39.00;99.90;;;;;;4987223;28;20194;-94
2022/07/20 05:47:24;;;;;;;862.20;780.88;;;39.20;99.90;;;;;;5020855;28;20195;-89
2022/07/20 05:49:51;;;;;;;957.53;870.63;;;39.50;99.90;;;;;;5020373;28;20289;-87
2022/07/20 05:52:20;;;;;;;956.58;869.08;;;39.70;99.90;;;;;;5016526;28;20248;-90
2022/07/20 05:54:57;;;;;;;1049.93;959.90;;;39.90;99.90;;;;;;5015424;28;20197;-91
2022/07/20 05:57:30;;;;;;;1060.90;969.70;;;40.10;99.90;;;;;;5016932;28;20214;-92
2022/07/20 06:00:02;;;;;;;1011.22;922.38;;;40.30;99.90;;;;;;5020363;28;20718;-88
2022/07/20 06:02:35;;;;;;;1022.25;933.58;;;40.50;99.90;;;;;;5019569;28;20221;-90
2022/07/20 06:05:02;;;;;;;916.35;832.38;;;40.80;99.90;;;;;;5015050;28;20283;-89
2022/07/20 06:07:33;;;;;;;955.22;870.47;;;40.90;99.90;;;;;;5013747;28;20630;-91
2022/07/20 06:10:10;;;;;;;1070.60;980.13;;;40.80;99.90;;;;;;5014383;28;20212;-88
2022/07/20 06:12:40;;;;;;;1034.43;945.85;;;40.90;99.90;;;;;;5018376;28;20252;-90
2022/07/20 06:15:08;;;;;;;1092.47;996.05;;;41.00;99.90;;;;;;5011765;28;20528;-89
2022/07/20 06:17:36;;;;;;;1066.40;975.58;;;41.10;99.90;;;;;;5014738;28;20197;-89
2022/07/20 06:23:18;;;;;;;1006.88;919.00;;;41.60;99.90;;;;;;5017906;28;20208;-90
2022/07/20 06:25:45;;;;;;;1054.45;965.30;;;41.80;99.90;;;;;;5022300;28;20205;-92
2022/07/20 06:28:12;;;;;;;1074.90;984.00;;;41.80;99.90;;;;;;5011824;28;20163;-88
2022/07/20 06:30:39;;;;;;;1082.72;989.95;;;42.10;99.90;;;;;;5022100;28;20174;-89
2022/07/20 06:33:06;;;;;;;1057.18;967.72;;;42.40;99.90;;;;;;5017207;28;20194;-86
2022/07/20 06:35:34;;;;;;;1077.47;986.90;;;42.40;99.90;;;;;;5016736;28;20671;-90
2022/07/20 06:38:01;;;;;;;1071.00;981.03;;;42.70;99.90;;;;;;5021573;28;20573;-87
2022/07/20 06:40:51;;;;;;;1112.40;999.90;;;42.90;99.90;;;;;;5023172;28;20200;-92
2022/07/20 06:43:18;;;;;;;1112.28;999.90;;;43.40;99.90;;;;;;5020341;28;20204;-89
2022/07/20 06:45:57;;;;;;;1108.05;999.90;;;43.70;99.90;;;;;;5020735;28;20218;-89
2022/07/20 06:48:36;;;;;;;1113.45;999.90;;;44.30;99.90;;;;;;5021806;28;20228;-89
2022/07/20 06:51:07;;;;;;;8.32;4.75;;;44.50;99.90;;;;;;5024519;28;20220;-90
2022/07/20 06:53:34;;;;;;;13.40;5.18;;;44.90;99.90;;;;;;5021631;28;20185;-88
2022/07/20 06:56:02;;;;;;;14.15;5.05;;;45.50;99.90;;;;;;5024160;28;20216;-88
2022/07/20 06:58:36;;;;;;;10.27;4.30;;;45.90;99.90;;;;;;5013046;28;20230;-90
2022/07/20 07:01:05;;;;;;;8.90;4.22;;;46.30;99.90;;;;;;5023690;28;20186;-92
2022/07/20 07:03:46;;;;;;;9.80;4.45;;;46.50;99.90;;;;;;5017927;28;20197;-91
2022/07/20 07:06:18;;;;;;;10.20;4.30;;;47.00;99.90;;;;;;5027500;28;20201;-91
2022/07/20 07:08:45;;;;;;;9.77;4.53;;;47.50;99.90;;;;;;5024791;28;20608;-88
2022/07/20 07:11:15;;;;;;;8.15;4.60;;;47.80;99.90;;;;;;5020801;28;20663;-94
2022/07/20 07:13:42;;;;;;;8.55;4.32;;;48.10;99.90;;;;;;5018737;28;20632;-91
2022/07/20 07:16:10;;;;;;;15.00;4.70;;;48.10;99.90;;;;;;5014770;28;20691;-87
2022/07/20 07:18:37;;;;;;;20.73;5.07;;;48.10;99.90;;;;;;5017263;28;20194;-92
2022/07/20 07:24:00;;;;;;;6.70;4.07;;;48.20;99.90;;;;;;5005410;28;20194;-91
2022/07/20 07:26:43;;;;;;;8.75;4.20;;;48.40;99.90;;;;;;5023439;28;20185;-91
2022/07/20 07:29:19;;;;;;;10.55;4.00;;;48.70;99.90;;;;;;5022151;28;20217;-91
2022/07/20 07:31:46;;;;;;;11.73;4.28;;;48.80;99.90;;;;;;5025732;28;20200;-88
2022/07/20 07:34:13;;;;;;;6.82;4.07;;;48.80;99.90;;;;;;5014057;28;20202;-89
2022/07/20 07:36:40;;;;;;;4.82;3.95;;;49.10;99.90;;;;;;5009549;28;20225;-91
2022/07/20 07:39:12;;;;;;;9.02;4.32;;;49.20;99.90;;;;;;5013400;28;20198;-90
2022/07/20 07:41:39;;;;;;;9.48;4.20;;;49.30;99.90;;;;;;5002988;28;20696;-88
2022/07/20 07:44:11;;;;;;;6.82;4.00;;;49.40;99.90;;;;;;5021229;28;20202;-94
2022/07/20 07:46:50;;;;;;;5.63;4.05;;;49.60;99.90;;;;;;5019035;28;20208;-91
2022/07/20 07:49:17;;;;;;;4.20;3.80;;;49.60;99.90;;;;;;5009170;28;20190;-89
2022/07/20 07:51:45;;;;;;;7.72;4.13;;;49.30;99.90;;;;;;5000925;28;20187;-91
2022/07/20 07:54:29;;;;;;;1144.45;995.10;;;49.00;99.90;;;;;;4998625;28;20723;-95
2022/07/20 07:56:56;;;;;;;1117.72;999.90;;;48.60;99.90;;;;;;4999036;28;20241;-89
2022/07/20 07:59:24;;;;;;;1167.82;999.90;;;48.60;99.90;;;;;;5001309;28;20238;-88
2022/07/20 08:01:53;;;;;;;1063.22;981.83;;;48.60;99.90;;;;;;5018017;28;20194;-92
2022/07/20 08:04:30;;;;;;;1225.15;999.90;;;48.60;99.90;;;;;;5021074;28;20249;-90
2022/07/20 08:07:12;;;;;;;1045.20;964.72;;;48.70;99.90;;;;;;5023303;28;20201;-94
2022/07/20 08:10:02;;;;;;;1022.38;943.78;;;48.90;99.90;;;;;;5013352;28;20216;-92
2022/07/20 08:12:33;;;;;;;1070.82;988.38;;;48.90;99.90;;;;;;5020972;28;20189;-95
2022/07/20 08:15:02;;;;;;;1087.90;998.60;;;48.80;99.90;;;;;;5011128;28;20190;-88
2022/07/20 08:17:29;;;;;;;1183.32;999.90;;;48.90;99.90;;;;;;4996296;28;20688;-88
2022/07/20 08:19:56;;;;;;;1158.43;999.90;;;48.70;99.90;;;;;;5002043;28;20202;-89
2022/07/20 08:22:23;;;;;;;5.43;3.47;;;48.50;99.90;;;;;;5003512;28;20554;-87
2022/07/20 08:24:50;;;;;;;4.25;3.58;;;48.60;99.90;;;;;;5014617;28;20218;-89
2022/07/20 08:27:21;;;;;;;4.00;3.47;;;48.80;99.90;;;;;;5011558;28;20662;-89
2022/07/20 08:30:00;;;;;;;4.25;3.70;;;48.90;99.90;;;;;;5005624;28;20281;-90
2022/07/20 08:33:31;;;;;;;6.57;3.33;;;48.90;99.90;;;;;;5014963;28;20181;-94
2022/07/20 08:40:01;;;;;;;8.40;3.80;;;48.40;99.90;;;;;;4962525;28;20207;-92
2022/07/20 08:46:40;;;;;;;3.95;3.60;;;48.30;99.90;;;;;;5001836;28;20194;-94
2022/07/20 08:49:17;;;;;;;9.75;4.50;;;48.40;99.90;;;;;;5014880;28;20193;-90
2022/07/20 08:52:42;;;;;;;;;;;;;;;;;;;;;
2022/07/20 08:55:39;;;;;;;6.97;4.00;;;47.40;99.90;;;;;;5025462;28;20166;-91
2022/07/20 08:58:23;;;;;;;5.10;3.00;;;47.30;99.90;;;;;;5026239;28;20227;-94
2022/07/20 09:00:50;;;;;;;7.35;3.80;;;47.40;99.90;;;;;;5014544;28;20201;-88
2022/07/20 09:06:17;;;;;;;4.80;3.63;;;46.70;99.90;;;;;;4984367;28;20230;-89
2022/07/20 09:09:11;;;;;;;6.28;3.72;;;46.10;99.90;;;;;;5019150;28;20678;-89
2022/07/20 09:11:38;;;;;;;6.35;3.78;;;46.00;99.90;;;;;;5015883;28;20193;-88
2022/07/20 09:14:28;;;;;;;;;;;;;;;;;;;;;
2022/07/20 09:20:59;;;;;;;7.43;3.95;;;46.60;99.90;;;;;;4975123;28;20198;-91
2022/07/20 09:23:54;;;;;;;5.93;3.28;;;46.40;99.90;;;;;;4960304;28;20192;-94
2022/07/20 09:26:22;;;;;;;3.92;3.53;;;46.10;99.90;;;;;;5007342;28;20608;-90
2022/07/20 09:28:54;;;;;;;4.05;3.38;;;46.20;99.90;;;;;;5016247;28;20637;-93
2022/07/20 09:31:25;;;;;;;5.05;3.35;;;46.00;99.90;;;;;;5020039;28;20186;-90
2022/07/20 09:34:12;;;;;;;5.03;3.90;;;45.40;99.90;;;;;;5018533;28;20189;-89
2022/07/20 09:36:42;;;;;;;5.90;3.97;;;44.70;99.90;;;;;;5017172;28;20221;-87
2022/07/20 09:39:11;;;;;;;10.23;4.30;;;44.00;99.90;;;;;;5020322;28;20202;-89
2022/07/20 09:41:46;;;;;;;6.10;4.60;;;43.90;99.90;;;;;;5017215;28;20205;-89
2022/07/20 09:44:25;;;;;;;6.82;3.95;;;43.40;99.90;;;;;;5030305;28;20216;-89
2022/07/20 09:46:54;;;;;;;6.85;3.95;;;43.10;99.90;;;;;;5019729;28;20209;-88
2022/07/20 09:49:33;;;;;;;5.28;4.05;;;42.90;99.90;;;;;;5009932;28;20225;-92
2022/07/20 09:52:02;;;;;;;5.95;3.30;;;42.70;99.90;;;;;;5018109;28;20201;-91
2022/07/20 09:54:36;;;;;;;6.28;3.67;;;42.40;99.90;;;;;;5019860;28;20201;-89
2022/07/20 09:57:08;;;;;;;4.88;3.70;;;42.20;99.90;;;;;;5021562;28;20202;-92
2022/07/20 09:59:50;;;;;;;4.13;3.35;;;42.10;99.90;;;;;;5018496;28;20233;-92
2022/07/20 10:02:20;;;;;;;8.30;3.85;;;42.20;99.90;;;;;;5024267;28;20198;-88
2022/07/20 10:05:27;;;;;;;7.30;3.65;;;42.00;99.90;;;;;;5035500;28;20189;-90
2022/07/20 10:07:57;;;;;;;5.82;3.83;;;41.80;99.90;;;;;;5040686;28;20229;-91
2022/07/20 10:10:33;;;;;;;5.32;3.47;;;41.50;99.90;;;;;;5019599;28;20210;-87
2022/07/20 10:13:04;;;;;;;7.07;3.97;;;41.20;99.90;;;;;;5022184;28;20175;-87
2022/07/20 10:15:42;;;;;;;5.55;3.45;;;41.00;99.90;;;;;;5020861;28;20204;-88
2022/07/20 10:18:13;;;;;;;4.68;3.50;;;40.70;99.90;;;;;;5027431;28;20217;-87
2022/07/20 10:20:40;;;;;;;5.20;3.28;;;40.60;99.90;;;;;;5020058;28;20194;-89
2022/07/20 10:23:33;;;;;;;6.90;3.95;;;40.50;99.90;;;;;;5018343;28;20196;-89
2022/07/20 10:26:26;;;;;;;3.70;3.13;;;40.50;99.90;;;;;;5026014;28;20221;-89
2022/07/20 10:29:00;;;;;;;4.38;2.92;;;40.50;99.90;;;;;;5020175;28;20255;-93
2022/07/20 10:31:47;;;;;;;5.05;3.30;;;40.40;99.90;;;;;;5021917;28;20193;-89
2022/07/20 10:34:35;;;;;;;3.67;3.22;;;40.30;99.90;;;;;;5022883;28;20674;-89
2022/07/20 10:37:27;;;;;;;5.18;3.25;;;40.20;99.90;;;;;;5017724;28;20567;-88
2022/07/20 10:40:07;;;;;;;4.28;3.00;;;40.10;99.90;;;;;;5028762;28;20251;-90
2022/07/20 10:45:47;;;;;;;6.00;3.17;;;40.10;99.90;;;;;;5010596;28;20249;-90
2022/07/20 10:48:20;;;;;;;5.20;3.05;;;40.00;99.90;;;;;;5028078;28;20245;-87
2022/07/20 10:51:03;;;;;;;3.20;2.90;;;40.00;99.90;;;;;;5031560;28;20232;-92
2022/07/20 10:53:41;;;;;;;3.65;2.85;;;40.00;99.90;;;;;;5030382;28;20198;-91
2022/07/20 10:56:32;;;;;;;4.05;3.30;;;40.10;99.90;;;;;;5024753;28;20248;-92
2022/07/20 10:59:02;;;;;;;6.13;3.30;;;40.10;99.90;;;;;;5006152;28;20234;-95
2022/07/20 11:01:29;;;;;;;4.88;2.78;;;40.00;99.90;;;;;;5025778;28;20133;-88
2022/07/20 11:03:57;;;;;;;5.50;2.72;;;39.80;99.90;;;;;;5020961;28;20210;-88
2022/07/20 11:06:36;;;;;;;3.08;2.65;;;39.60;99.90;;;;;;5015077;28;20209;-93
2022/07/20 11:09:33;;;;;;;3.63;2.00;;;39.40;99.90;;;;;;5039668;28;20221;-92
2022/07/20 11:12:14;;;;;;;4.05;2.25;;;39.20;99.90;;;;;;5033189;28;20197;-91
2022/07/20 11:15:12;;;;;;;4.55;2.60;;;39.10;99.90;;;;;;5033246;28;20193;-90
2022/07/20 11:17:59;;;;;;;;;;;;;;;;;;;;;
2022/07/20 11:20:27;;;;;;;2.60;2.38;;;39.00;99.90;;;;;;5022943;28;20568;-87
2022/07/20 11:22:58;;;;;;;23.73;4.07;;;38.90;99.90;;;;;;5014681;28;20210;-86
2022/07/20 11:25:26;;;;;;;6.78;2.40;;;39.00;99.90;;;;;;5018959;28;20198;-87
2022/07/20 11:28:15;;;;;;;3.40;2.15;;;39.00;99.90;;;;;;5019897;28;20201;-89
2022/07/20 11:30:48;;;;;;;5.03;2.05;;;39.00;99.90;;;;;;5020031;28;20229;-88
2022/07/20 11:33:37;;;;;;;2.97;1.40;;;38.80;99.90;;;;;;5017771;28;20194;-88
2022/07/20 11:36:26;;;;;;;2.53;1.30;;;38.90;99.90;;;;;;5004340;28;20205;-89
2022/07/20 11:39:05;;;;;;;4.13;1.52;;;38.80;99.90;;;;;;4971645;28;20237;-92
2022/07/20 11:41:58;;;;;;;3.00;1.48;;;38.70;99.90;;;;;;5011038;28;20731;-90
2022/07/20 11:44:35;;;;;;;3.47;1.23;;;38.70;99.90;;;;;;5015408;28;20250;-90
2022/07/20 11:47:24;;;;;;;3.40;1.40;;;38.80;99.90;;;;;;5007344;28;20381;-88
2022/07/20 11:50:10;;;;;;;6.45;2.08;;;38.90;99.90;;;;;;5016403;28;20205;-91
2022/07/20 11:52:45;;;;;;;2.85;2.00;;;39.00;99.90;;;;;;5022559;28;20176;-93
2022/07/20 11:55:37;;;;;;;5.50;1.88;;;39.00;99.90;;;;;;5034176;28;20233;-89
2022/07/20 11:58:08;;;;;;;2.47;1.80;;;39.00;99.90;;;;;;5028580;28;20229;-88
2022/07/20 12:00:35;;;;;;;2.97;1.90;;;38.90;99.90;;;;;;5020883;28;20189;-87
2022/07/20 12:03:15;;;;;;;4.28;2.30;;;38.80;99.90;;;;;;5019488;28;20614;-87
2022/07/20 12:05:54;;;;;;;4.90;1.92;;;38.80;99.90;;;;;;5004211;28;20190;-88
2022/07/20 12:08:24;;;;;;;3.35;2.20;;;38.90;99.90;;;;;;5000169;28;20197;-88
2022/07/20 12:10:52;;;;;;;4.95;2.70;;;38.90;99.90;;;;;;5008128;28;20206;-87
2022/07/20 12:16:55;;;;;;;3.97;2.55;;;38.80;99.90;;;;;;5020696;28;20180;-86
2022/07/20 12:19:31;;;;;;;5.18;2.80;;;38.80;99.90;;;;;;5023890;28;20224;-88
2022/07/20 12:21:58;;;;;;;5.70;3.05;;;38.70;99.90;;;;;;5020487;28;20197;-87
2022/07/20 12:24:25;;;;;;;5.82;2.95;;;38.80;99.90;;;;;;5016291;28;20251;-87
2022/07/20 12:27:48;;;;;;;7.85;3.13;;;38.70;99.90;;;;;;5019169;28;20188;-93
2022/07/20 12:31:08;;;;;;;5.65;2.70;;;38.70;99.90;;;;;;5032753;28;20199;-93
2022/07/20 12:33:55;;;;;;;3.95;3.00;;;38.70;99.90;;;;;;4962074;28;20201;-89
2022/07/20 12:36:35;;;;;;;6.03;3.35;;;38.80;99.90;;;;;;4988934;28;20210;-91
2022/07/20 12:39:04;;;;;;;6.30;3.30;;;38.70;99.90;;;;;;5017803;28;20309;-88
2022/07/20 12:41:31;;;;;;;6.50;3.60;;;38.70;99.90;;;;;;5016067;28;20202;-88
2022/07/20 12:44:24;;;;;;;7.75;3.63;;;38.70;99.90;;;;;;5017140;28;20205;-90
2022/07/20 12:47:12;;;;;;;5.55;3.70;;;38.60;99.90;;;;;;5023042;28;20197;-89
2022/07/20 12:49:40;;;;;;;6.63;3.25;;;38.60;99.90;;;;;;5004329;28;20220;-88
2022/07/20 12:52:17;;;;;;;8.15;3.80;;;38.50;99.90;;;;;;5019579;28;20193;-90
2022/07/20 12:54:58;;;;;;;5.88;3.78;;;38.50;99.90;;;;;;5021575;28;20198;-90
2022/07/20 12:57:25;;;;;;;7.13;3.83;;;38.50;99.90;;;;;;5019906;28;20604;-89
2022/07/20 13:00:12;;;;;;;5.60;3.90;;;38.40;99.90;;;;;;5022217;28;20197;-88
2022/07/20 13:02:39;;;;;;;6.38;3.58;;;38.40;99.90;;;;;;5020612;28;20205;-88
2022/07/20 13:08:45;;;;;;;9.52;3.50;;;38.20;99.90;;;;;;5118555;27;20949;-87
2022/07/20 13:11:12;;;;;;;4.85;3.63;;;38.10;99.90;;;;;;5116379;28;20201;-86
2022/07/20 13:20:15;;;;;;;8.38;3.70;;;37.90;99.90;;;;;;5019040;28;20198;-93
2022/07/20 13:23:05;;;;;;;5.38;3.75;;;37.90;99.90;;;;;;5058089;28;20233;-90
2022/07/20 13:28:47;;;;;;;7.28;3.70;;;37.80;99.90;;;;;;5088154;28;20192;-88
2022/07/20 13:31:15;;;;;;;7.35;3.70;;;37.80;99.90;;;;;;5114226;28;20206;-86
2022/07/20 13:33:42;;;;;;;6.82;4.05;;;37.90;99.90;;;;;;5101180;28;20201;-88
2022/07/20 13:36:16;;;;;;;6.05;3.75;;;37.80;99.90;;;;;;5125760;28;20202;-90
2022/07/20 13:38:52;;;;;;;5.70;3.80;;;37.70;99.90;;;;;;5109932;28;20658;-87
2022/07/20 13:41:25;;;;;;;7.70;4.00;;;37.80;99.90;;;;;;5105763;28;20673;-89
2022/07/20 13:43:52;;;;;;;6.15;3.50;;;37.70;99.90;;;;;;5109783;28;20195;-87
2022/07/20 13:50:10;;;;;;;7.65;3.70;;;37.70;99.90;;;;;;5092289;28;20188;-90
2022/07/20 13:56:00;;;;;;;3.85;3.28;;;37.80;99.90;;;;;;5034964;28;20307;-87
2022/07/20 13:58:29;;;;;;;7.05;3.30;;;37.80;99.90;;;;;;5075208;28;20192;-88
2022/07/20 14:01:18;;;;;;;5.43;3.35;;;37.80;99.90;;;;;;5108916;28;20574;-93
2022/07/20 14:03:45;;;;;;;4.60;3.40;;;37.70;99.90;;;;;;5116705;28;20252;-89
2022/07/20 14:09:28;;;;;;;5.50;3.63;;;37.70;99.90;;;;;;5098252;28;20199;-86
2022/07/20 14:11:55;;;;;;;5.60;3.30;;;37.50;99.90;;;;;;5098768;28;20198;-88
2022/07/20 14:14:26;;;;;;;6.32;3.28;;;37.60;99.90;;;;;;5108856;28;20199;-86
2022/07/20 14:16:56;;;;;;;4.00;3.45;;;37.60;99.90;;;;;;5096534;28;20191;-94
2022/07/20 14:19:23;;;;;;;7.15;3.80;;;37.50;99.90;;;;;;5092281;28;20175;-87
2022/07/20 14:21:50;;;;;;;5.90;3.65;;;37.50;99.90;;;;;;5096646;28;20231;-87
2022/07/20 14:24:47;;;;;;;5.80;3.50;;;37.40;99.90;;;;;;5101362;28;20200;-89
2022/07/20 14:27:25;;;;;;;6.03;3.70;;;37.30;99.90;;;;;;5077957;28;20184;-88
2022/07/20 14:30:05;;;;;;;4.82;3.55;;;37.40;99.90;;;;;;5085132;28;20191;-88
2022/07/20 14:32:33;;;;;;;6.05;3.65;;;37.40;99.90;;;;;;5076506;28;20246;-89
2022/07/20 14:35:00;;;;;;;4.00;3.40;;;37.40;99.90;;;;;;5106819;28;20179;-85
2022/07/20 14:37:35;;;;;;;929.33;857.83;;;37.30;99.90;;;;;;5099090;28;20193;-88
2022/07/20 14:40:02;;;;;;;794.90;732.45;;;37.30;99.90;;;;;;5093107;28;20197;-86
2022/07/20 14:42:50;;;;;;;6.88;3.53;;;37.30;99.90;;;;;;5101292;28;20204;-90
2022/07/20 14:45:37;;;;;;;8.15;3.80;;;37.30;99.90;;;;;;5106114;28;20644;-90
2022/07/20 14:48:09;;;;;;;6.50;3.78;;;37.40;99.90;;;;;;5108192;28;20206;-91
2022/07/20 14:50:36;;;;;;;5.50;3.42;;;37.40;99.90;;;;;;5104315;28;20199;-87
2022/07/20 14:53:24;;;;;;;10.80;3.75;;;37.30;99.90;;;;;;5099875;28;20175;-92
2022/07/20 14:55:54;;;;;;;4.30;3.40;;;37.20;99.90;;;;;;5094253;28;20211;-89
2022/07/20 14:58:29;;;;;;;5.95;3.70;;;37.20;99.90;;;;;;5107125;28;20260;-90
2022/07/20 15:01:12;;;;;;;4.50;3.20;;;37.20;99.90;;;;;;5100782;28;20224;-87
2022/07/20 15:03:45;;;;;;;6.72;3.63;;;37.20;99.90;;;;;;5102155;28;20710;-89
2022/07/20 15:06:46;;;;;;;5.43;3.35;;;37.10;99.90;;;;;;5100901;28;20179;-89